sensor_id;sensor_type;location;lat;lon;timestamp;pressure;altitude;pressure_sealevel;temperature;humidity
55470;BME280;41334;47.872;16.384;2024-02-28T00:00:26;98790.78;;;8.45;54.91
55470;BME280;41334;47.872;16.384;2024-02-28T00:05:28;98787.41;;;8.39;54.89
55470;BME280;41334;47.872;16.384;2024-02-28T00:10:32;98789.59;;;8.54;53.93
55470;BME280;41334;47.872;16.384;2024-02-28T00:15:34;98794.38;;;8.66;54.23
55470;BME280;41334;47.872;16.384;2024-02-28T00:20:35;98790.59;;;8.71;55.02
55470;BME280;41334;47.872;16.384;2024-02-28T00:25:37;98788.22;;;8.60;54.75
55470;BME280;41334;47.872;16.384;2024-02-28T00:30:39;98788.53;;;8.59;54.87
55470;BME280;41334;47.872;16.384;2024-02-28T00:35:42;98783.41;;;8.49;54.07
55470;BME280;41334;47.872;16.384;2024-02-28T00:40:44;98777.34;;;8.47;54.97
55470;BME280;41334;47.872;16.384;2024-02-28T00:45:46;98792.41;;;8.46;54.98
55470;BME280;41334;47.872;16.384;2024-02-28T00:50:48;98796.72;;;8.22;56.98
55470;BME280;41334;47.872;16.384;2024-02-28T00:55:50;98802.84;;;8.49;54.29
55470;BME280;41334;47.872;16.384;2024-02-28T01:00:53;98805.63;;;8.49;55.40
55470;BME280;41334;47.872;16.384;2024-02-28T01:05:55;98792.97;;;8.60;54.81
55470;BME280;41334;47.872;16.384;2024-02-28T01:10:57;98812.84;;;8.50;54.74
55470;BME280;41334;47.872;16.384;2024-02-28T01:16:01;98793.56;;;8.45;55.48
55470;BME280;41334;47.872;16.384;2024-02-28T01:21:03;98801.81;;;8.32;56.19
55470;BME280;41334;47.872;16.384;2024-02-28T01:26:05;98805.16;;;8.26;56.55
55470;BME280;41334;47.872;16.384;2024-02-28T01:31:07;98807.28;;;8.29;56.52
55470;BME280;41334;47.872;16.384;2024-02-28T01:36:11;98803.72;;;7.99;56.60
55470;BME280;41334;47.872;16.384;2024-02-28T01:41:13;98806.50;;;7.99;56.20
55470;BME280;41334;47.872;16.384;2024-02-28T01:46:26;98797.91;;;7.92;56.65
55470;BME280;41334;47.872;16.384;2024-02-28T01:51:28;98798.72;;;7.92;57.57
55470;BME280;41334;47.872;16.384;2024-02-28T01:56:30;98794.41;;;8.03;56.79
55470;BME280;41334;47.872;16.384;2024-02-28T02:01:33;98801.09;;;8.02;56.42
55470;BME280;41334;47.872;16.384;2024-02-28T02:06:37;98797.56;;;7.93;56.40
55470;BME280;41334;47.872;16.384;2024-02-28T02:11:40;98796.59;;;7.89;56.58
55470;BME280;41334;47.872;16.384;2024-02-28T02:16:42;98796.91;;;7.96;56.76
55470;BME280;41334;47.872;16.384;2024-02-28T02:21:52;98801.22;;;8.06;56.37
55470;BME280;41334;47.872;16.384;2024-02-28T02:26:58;98809.09;;;8.04;55.95
55470;BME280;41334;47.872;16.384;2024-02-28T02:32:00;98810.09;;;7.99;56.35
55470;BME280;41334;47.872;16.384;2024-02-28T02:37:03;98800.34;;;7.93;56.19
55470;BME280;41334;47.872;16.384;2024-02-28T02:42:06;98803.59;;;7.95;56.10
55470;BME280;41334;47.872;16.384;2024-02-28T02:47:08;98808.22;;;7.91;55.89
55470;BME280;41334;47.872;16.384;2024-02-28T02:52:11;98804.28;;;7.92;56.65
55470;BME280;41334;47.872;16.384;2024-02-28T02:57:12;98805.63;;;7.86;56.45
55470;BME280;41334;47.872;16.384;2024-02-28T03:02:14;98802.50;;;7.87;56.06
55470;BME280;41334;47.872;16.384;2024-02-28T03:07:16;98810.78;;;7.96;55.95
55470;BME280;41334;47.872;16.384;2024-02-28T03:12:18;98802.84;;;7.86;56.17
55470;BME280;41334;47.872;16.384;2024-02-28T03:17:23;98813.00;;;7.82;56.02
55470;BME280;41334;47.872;16.384;2024-02-28T03:22:26;98809.78;;;7.71;55.87
55470;BME280;41334;47.872;16.384;2024-02-28T03:27:28;98815.75;;;7.52;57.35
55470;BME280;41334;47.872;16.384;2024-02-28T03:32:31;98810.09;;;7.49;57.13
55470;BME280;41334;47.872;16.384;2024-02-28T03:37:32;98804.19;;;7.50;56.53
55470;BME280;41334;47.872;16.384;2024-02-28T03:42:34;98815.66;;;7.40;57.96
55470;BME280;41334;47.872;16.384;2024-02-28T03:47:36;98824.25;;;7.47;57.16
55470;BME280;41334;47.872;16.384;2024-02-28T03:52:38;98821.69;;;7.42;56.22
55470;BME280;41334;47.872;16.384;2024-02-28T03:57:40;98817.59;;;7.48;56.89
55470;BME280;41334;47.872;16.384;2024-02-28T04:02:42;98826.91;;;7.44;55.96
55470;BME280;41334;47.872;16.384;2024-02-28T04:07:44;98831.31;;;7.45;57.23
55470;BME280;41334;47.872;16.384;2024-02-28T04:12:47;98827.53;;;7.49;57.45
55470;BME280;41334;47.872;16.384;2024-02-28T04:17:49;98831.13;;;7.50;57.17
55470;BME280;41334;47.872;16.384;2024-02-28T04:22:51;98831.47;;;7.48;57.75
55470;BME280;41334;47.872;16.384;2024-02-28T04:27:53;98833.34;;;7.65;56.62
55470;BME280;41334;47.872;16.384;2024-02-28T04:32:55;98849.06;;;7.82;56.02
55470;BME280;41334;47.872;16.384;2024-02-28T04:37:57;98868.66;;;7.85;55.55
55470;BME280;41334;47.872;16.384;2024-02-28T04:42:59;98871.09;;;7.87;56.03
55470;BME280;41334;47.872;16.384;2024-02-28T04:48:01;98872.09;;;7.82;56.70
55470;BME280;41334;47.872;16.384;2024-02-28T04:53:03;98867.16;;;7.88;56.56
55470;BME280;41334;47.872;16.384;2024-02-28T04:58:05;98864.53;;;7.92;57.01
55470;BME280;41334;47.872;16.384;2024-02-28T05:03:07;98879.28;;;7.83;57.53
55470;BME280;41334;47.872;16.384;2024-02-28T05:08:09;98893.09;;;7.62;58.24
55470;BME280;41334;47.872;16.384;2024-02-28T05:13:11;98890.66;;;7.52;56.89
55470;BME280;41334;47.872;16.384;2024-02-28T05:18:13;98909.63;;;7.42;58.65
55470;BME280;41334;47.872;16.384;2024-02-28T05:23:15;98921.75;;;7.37;57.89
55470;BME280;41334;47.872;16.384;2024-02-28T05:28:17;98916.38;;;7.32;57.18
55470;BME280;41334;47.872;16.384;2024-02-28T05:33:19;98922.88;;;7.19;57.89
55470;BME280;41334;47.872;16.384;2024-02-28T05:38:24;98925.66;;;7.10;58.84
55470;BME280;41334;47.872;16.384;2024-02-28T05:43:26;98938.06;;;7.04;59.23
55470;BME280;41334;47.872;16.384;2024-02-28T05:48:29;98952.94;;;6.73;60.95
55470;BME280;41334;47.872;16.384;2024-02-28T05:53:31;98972.75;;;6.41;61.03
55470;BME280;41334;47.872;16.384;2024-02-28T05:58:46;98969.47;;;6.30;60.26
55470;BME280;41334;47.872;16.384;2024-02-28T06:03:49;98984.38;;;6.03;60.42
55470;BME280;41334;47.872;16.384;2024-02-28T06:08:51;98987.06;;;6.25;59.31
55470;BME280;41334;47.872;16.384;2024-02-28T06:13:53;98993.34;;;6.66;56.00
55470;BME280;41334;47.872;16.384;2024-02-28T06:18:55;99002.31;;;6.63;57.54
55470;BME280;41334;47.872;16.384;2024-02-28T06:23:57;99005.41;;;6.70;56.96
55470;BME280;41334;47.872;16.384;2024-02-28T06:28:59;99018.47;;;6.69;57.14
55470;BME280;41334;47.872;16.384;2024-02-28T06:34:03;99027.59;;;6.70;56.58
55470;BME280;41334;47.872;16.384;2024-02-28T06:39:05;99035.22;;;6.64;56.42
55470;BME280;41334;47.872;16.384;2024-02-28T06:44:07;99031.47;;;6.60;56.92
55470;BME280;41334;47.872;16.384;2024-02-28T06:49:09;99049.69;;;6.44;57.81
55470;BME280;41334;47.872;16.384;2024-02-28T06:54:11;99050.63;;;6.39;57.39
55470;BME280;41334;47.872;16.384;2024-02-28T06:59:13;99057.47;;;6.33;57.39
55470;BME280;41334;47.872;16.384;2024-02-28T07:04:15;99061.16;;;6.77;55.53
55470;BME280;41334;47.872;16.384;2024-02-28T07:09:17;99071.63;;;6.80;55.27
55470;BME280;41334;47.872;16.384;2024-02-28T07:14:20;99091.94;;;7.24;54.16
55470;BME280;41334;47.872;16.384;2024-02-28T07:19:22;99088.59;;;6.96;54.94
55470;BME280;41334;47.872;16.384;2024-02-28T07:24:24;99099.19;;;6.94;55.11
55470;BME280;41334;47.872;16.384;2024-02-28T07:29:26;99108.28;;;6.68;55.72
55470;BME280;41334;47.872;16.384;2024-02-28T07:34:28;99112.31;;;7.36;53.74
55470;BME280;41334;47.872;16.384;2024-02-28T07:39:32;99124.56;;;7.61;52.46
55470;BME280;41334;47.872;16.384;2024-02-28T07:44:34;99126.38;;;7.49;53.25
55470;BME280;41334;47.872;16.384;2024-02-28T07:49:36;99124.06;;;7.42;52.94
55470;BME280;41334;47.872;16.384;2024-02-28T07:54:41;99145.97;;;7.61;52.71
55470;BME280;41334;47.872;16.384;2024-02-28T07:59:44;99138.09;;;7.63;52.85
55470;BME280;41334;47.872;16.384;2024-02-28T08:04:46;99147.72;;;8.00;51.55
55470;BME280;41334;47.872;16.384;2024-02-28T08:09:48;99153.47;;;8.59;49.93
55470;BME280;41334;47.872;16.384;2024-02-28T08:14:50;99161.50;;;8.52;50.26
55470;BME280;41334;47.872;16.384;2024-02-28T08:19:52;99156.00;;;8.82;49.15
55470;BME280;41334;47.872;16.384;2024-02-28T08:24:54;99170.47;;;8.66;49.54
55470;BME280;41334;47.872;16.384;2024-02-28T08:29:56;99164.81;;;8.84;49.20
55470;BME280;41334;47.872;16.384;2024-02-28T08:35:00;99168.06;;;8.86;48.94
55470;BME280;41334;47.872;16.384;2024-02-28T08:40:02;99173.00;;;8.80;48.96
55470;BME280;41334;47.872;16.384;2024-02-28T08:45:05;99179.28;;;8.68;49.32
55470;BME280;41334;47.872;16.384;2024-02-28T08:50:07;99192.03;;;9.08;48.48
55470;BME280;41334;47.872;16.384;2024-02-28T08:55:09;99190.66;;;9.73;47.59
55470;BME280;41334;47.872;16.384;2024-02-28T09:00:12;99192.69;;;9.85;46.88
55470;BME280;41334;47.872;16.384;2024-02-28T09:05:14;99192.22;;;9.83;46.58
55470;BME280;41334;47.872;16.384;2024-02-28T09:10:16;99195.88;;;9.75;46.96
55470;BME280;41334;47.872;16.384;2024-02-28T09:15:23;99215.41;;;9.15;48.17
55470;BME280;41334;47.872;16.384;2024-02-28T09:20:25;99212.00;;;9.90;47.23
55470;BME280;41334;47.872;16.384;2024-02-28T09:25:27;99221.34;;;10.06;46.21
55470;BME280;41334;47.872;16.384;2024-02-28T09:30:30;99218.59;;;10.39;44.97
55470;BME280;41334;47.872;16.384;2024-02-28T09:35:46;99222.47;;;10.47;45.02
55470;BME280;41334;47.872;16.384;2024-02-28T09:40:49;99228.41;;;10.58;45.14
55470;BME280;41334;47.872;16.384;2024-02-28T09:45:51;99230.38;;;11.39;43.29
55470;BME280;41334;47.872;16.384;2024-02-28T09:50:54;99238.88;;;11.06;43.50
55470;BME280;41334;47.872;16.384;2024-02-28T09:55:58;99237.25;;;11.05;43.25
55470;BME280;41334;47.872;16.384;2024-02-28T10:01:01;99241.84;;;10.76;44.33
55470;BME280;41334;47.872;16.384;2024-02-28T10:06:08;99247.09;;;10.78;43.92
55470;BME280;41334;47.872;16.384;2024-02-28T10:11:23;99238.41;;;11.28;43.11
55470;BME280;41334;47.872;16.384;2024-02-28T10:16:26;99255.03;;;11.25;43.09
55470;BME280;41334;47.872;16.384;2024-02-28T10:21:30;99253.53;;;11.64;42.13
55470;BME280;41334;47.872;16.384;2024-02-28T10:26:45;99246.16;;;11.96;42.10
55470;BME280;41334;47.872;16.384;2024-02-28T10:31:47;99253.06;;;11.62;42.06
55470;BME280;41334;47.872;16.384;2024-02-28T10:36:49;99254.34;;;11.28;43.10
55470;BME280;41334;47.872;16.384;2024-02-28T10:41:52;99250.88;;;11.80;42.37
55470;BME280;41334;47.872;16.384;2024-02-28T10:46:55;99243.88;;;11.86;42.35
55470;BME280;41334;47.872;16.384;2024-02-28T10:51:58;99248.53;;;11.45;42.77
55470;BME280;41334;47.872;16.384;2024-02-28T10:57:01;99241.75;;;11.71;41.96
55470;BME280;41334;47.872;16.384;2024-02-28T11:02:04;99246.16;;;11.96;42.20
55470;BME280;41334;47.872;16.384;2024-02-28T11:07:07;99247.56;;;12.02;41.39
55470;BME280;41334;47.872;16.384;2024-02-28T11:12:26;99242.16;;;13.09;39.48
55470;BME280;41334;47.872;16.384;2024-02-28T11:17:33;99232.13;;;12.49;40.55
55470;BME280;41334;47.872;16.384;2024-02-28T11:22:37;99235.03;;;12.96;40.15
55470;BME280;41334;47.872;16.384;2024-02-28T11:27:46;99229.47;;;12.40;41.70
55470;BME280;41334;47.872;16.384;2024-02-28T11:32:48;99227.91;;;11.62;42.72
55470;BME280;41334;47.872;16.384;2024-02-28T11:37:55;99235.47;;;12.98;41.45
55470;BME280;41334;47.872;16.384;2024-02-28T11:43:00;99219.66;;;13.06;41.01
55470;BME280;41334;47.872;16.384;2024-02-28T11:48:06;99218.50;;;12.91;39.61
55470;BME280;41334;47.872;16.384;2024-02-28T11:53:08;99225.59;;;13.52;39.58
55470;BME280;41334;47.872;16.384;2024-02-28T11:58:10;99222.34;;;12.15;40.51
55470;BME280;41334;47.872;16.384;2024-02-28T12:03:12;99220.09;;;13.40;39.45
55470;BME280;41334;47.872;16.384;2024-02-28T12:08:14;99222.38;;;13.34;38.27
55470;BME280;41334;47.872;16.384;2024-02-28T12:13:19;99214.09;;;13.73;37.58
55470;BME280;41334;47.872;16.384;2024-02-28T12:18:22;99210.50;;;13.56;38.13
55470;BME280;41334;47.872;16.384;2024-02-28T12:23:24;99210.69;;;12.69;39.78
55470;BME280;41334;47.872;16.384;2024-02-28T12:28:26;99208.53;;;12.78;39.86
55470;BME280;41334;47.872;16.384;2024-02-28T12:33:28;99207.97;;;12.28;40.32
55470;BME280;41334;47.872;16.384;2024-02-28T12:38:30;99208.47;;;12.18;41.23
55470;BME280;41334;47.872;16.384;2024-02-28T12:43:32;99205.22;;;12.88;39.37
55470;BME280;41334;47.872;16.384;2024-02-28T12:48:38;99198.25;;;12.82;39.58
55470;BME280;41334;47.872;16.384;2024-02-28T12:53:41;99204.38;;;12.72;39.98
55470;BME280;41334;47.872;16.384;2024-02-28T12:58:42;99196.84;;;13.55;38.56
55470;BME280;41334;47.872;16.384;2024-02-28T13:03:45;99202.03;;;12.90;39.22
55470;BME280;41334;47.872;16.384;2024-02-28T13:08:47;99202.38;;;12.28;40.50
55470;BME280;41334;47.872;16.384;2024-02-28T13:13:53;99204.19;;;12.09;40.00
55470;BME280;41334;47.872;16.384;2024-02-28T13:18:56;99199.16;;;12.14;40.52
55470;BME280;41334;47.872;16.384;2024-02-28T13:23:58;99210.09;;;11.67;40.89
55470;BME280;41334;47.872;16.384;2024-02-28T13:29:00;99209.78;;;11.44;40.88
55470;BME280;41334;47.872;16.384;2024-02-28T13:34:02;99207.34;;;11.79;40.85
55470;BME280;41334;47.872;16.384;2024-02-28T13:39:05;99211.41;;;11.45;41.68
55470;BME280;41334;47.872;16.384;2024-02-28T13:44:07;99208.84;;;11.40;42.30
55470;BME280;41334;47.872;16.384;2024-02-28T13:49:12;99214.09;;;11.53;40.86
55470;BME280;41334;47.872;16.384;2024-02-28T13:54:15;99218.41;;;11.14;41.72
55470;BME280;41334;47.872;16.384;2024-02-28T13:59:17;99214.91;;;11.29;41.90
55470;BME280;41334;47.872;16.384;2024-02-28T14:04:19;99216.31;;;11.48;41.41
55470;BME280;41334;47.872;16.384;2024-02-28T14:09:21;99228.97;;;11.09;41.75
55470;BME280;41334;47.872;16.384;2024-02-28T14:14:23;99228.28;;;11.12;41.87
55470;BME280;41334;47.872;16.384;2024-02-28T14:19:25;99232.84;;;11.28;42.30
55470;BME280;41334;47.872;16.384;2024-02-28T14:24:28;99230.03;;;11.04;42.50
55470;BME280;41334;47.872;16.384;2024-02-28T14:29:33;99246.91;;;11.32;42.14
55470;BME280;41334;47.872;16.384;2024-02-28T14:34:34;99247.09;;;10.90;42.51
55470;BME280;41334;47.872;16.384;2024-02-28T14:39:37;99239.59;;;11.15;42.18
55470;BME280;41334;47.872;16.384;2024-02-28T14:44:39;99249.22;;;11.18;43.32
55470;BME280;41334;47.872;16.384;2024-02-28T14:49:41;99267.88;;;10.47;42.48
55470;BME280;41334;47.872;16.384;2024-02-28T14:54:43;99273.28;;;10.98;43.23
55470;BME280;41334;47.872;16.384;2024-02-28T14:59:47;99272.25;;;10.69;43.14
55470;BME280;41334;47.872;16.384;2024-02-28T15:04:49;99291.50;;;10.83;42.36
55470;BME280;41334;47.872;16.384;2024-02-28T15:09:51;99285.34;;;10.57;43.22
55470;BME280;41334;47.872;16.384;2024-02-28T15:14:55;99290.91;;;9.73;45.17
55470;BME280;41334;47.872;16.384;2024-02-28T15:19:57;99309.69;;;9.46;46.68
55470;BME280;41334;47.872;16.384;2024-02-28T15:24:59;99298.13;;;9.74;46.67
55470;BME280;41334;47.872;16.384;2024-02-28T15:30:01;99319.53;;;9.44;46.96
55470;BME280;41334;47.872;16.384;2024-02-28T15:35:07;99328.50;;;9.50;47.14
55470;BME280;41334;47.872;16.384;2024-02-28T15:40:10;99320.78;;;9.55;47.12
55470;BME280;41334;47.872;16.384;2024-02-28T15:45:13;99321.84;;;9.33;47.80
55470;BME280;41334;47.872;16.384;2024-02-28T15:50:17;99324.25;;;9.05;48.82
55470;BME280;41334;47.872;16.384;2024-02-28T15:55:20;99328.31;;;9.16;48.48
55470;BME280;41334;47.872;16.384;2024-02-28T16:00:22;99332.44;;;9.02;49.01
55470;BME280;41334;47.872;16.384;2024-02-28T16:05:24;99343.72;;;9.05;48.76
55470;BME280;41334;47.872;16.384;2024-02-28T16:10:29;99328.59;;;8.68;49.46
55470;BME280;41334;47.872;16.384;2024-02-28T16:15:33;99338.41;;;8.57;49.81
55470;BME280;41334;47.872;16.384;2024-02-28T16:20:36;99351.03;;;8.54;50.14
55470;BME280;41334;47.872;16.384;2024-02-28T16:25:39;99355.88;;;8.23;50.40
55470;BME280;41334;47.872;16.384;2024-02-28T16:30:45;99355.91;;;8.49;49.96
55470;BME280;41334;47.872;16.384;2024-02-28T16:35:48;99369.59;;;8.19;50.75
55470;BME280;41334;47.872;16.384;2024-02-28T16:40:54;99372.00;;;7.86;51.70
55470;BME280;41334;47.872;16.384;2024-02-28T16:45:56;99378.50;;;7.81;51.77
55470;BME280;41334;47.872;16.384;2024-02-28T16:51:00;99389.84;;;7.62;52.60
55470;BME280;41334;47.872;16.384;2024-02-28T16:56:03;99391.13;;;7.96;51.65
55470;BME280;41334;47.872;16.384;2024-02-28T17:01:06;99385.34;;;7.84;51.48
55470;BME280;41334;47.872;16.384;2024-02-28T17:06:09;99391.94;;;7.48;53.06
55470;BME280;41334;47.872;16.384;2024-02-28T17:11:12;99388.38;;;7.56;52.57
55470;BME280;41334;47.872;16.384;2024-02-28T17:16:14;99394.75;;;7.26;53.48
55470;BME280;41334;47.872;16.384;2024-02-28T17:21:18;99401.94;;;7.27;53.67
55470;BME280;41334;47.872;16.384;2024-02-28T17:26:21;99399.69;;;6.84;55.08
55470;BME280;41334;47.872;16.384;2024-02-28T17:31:22;99412.97;;;6.96;54.67
55470;BME280;41334;47.872;16.384;2024-02-28T17:36:24;99412.41;;;7.07;54.41
55470;BME280;41334;47.872;16.384;2024-02-28T17:41:26;99420.19;;;6.83;54.57
55470;BME280;41334;47.872;16.384;2024-02-28T17:46:29;99421.53;;;6.85;54.71
55470;BME280;41334;47.872;16.384;2024-02-28T17:51:35;99422.84;;;6.66;55.62
55470;BME280;41334;47.872;16.384;2024-02-28T17:56:37;99426.13;;;6.68;55.54
55470;BME280;41334;47.872;16.384;2024-02-28T18:01:47;99428.25;;;6.71;54.80
55470;BME280;41334;47.872;16.384;2024-02-28T18:06:49;99431.47;;;6.64;55.17
55470;BME280;41334;47.872;16.384;2024-02-28T18:11:52;99438.97;;;6.64;55.04
55470;BME280;41334;47.872;16.384;2024-02-28T18:16:54;99438.16;;;6.63;55.47
55470;BME280;41334;47.872;16.384;2024-02-28T18:21:57;99432.97;;;6.48;56.23
55470;BME280;41334;47.872;16.384;2024-02-28T18:26:59;99433.25;;;6.46;55.82
55470;BME280;41334;47.872;16.384;2024-02-28T18:32:01;99431.34;;;6.47;55.43
55470;BME280;41334;47.872;16.384;2024-02-28T18:37:04;99438.63;;;6.29;56.41
55470;BME280;41334;47.872;16.384;2024-02-28T18:42:06;99437.22;;;6.31;56.67
55470;BME280;41334;47.872;16.384;2024-02-28T18:47:08;99437.84;;;6.15;57.17
55470;BME280;41334;47.872;16.384;2024-02-28T18:52:09;99434.56;;;6.26;56.66
55470;BME280;41334;47.872;16.384;2024-02-28T18:57:12;99432.38;;;6.23;56.79
55470;BME280;41334;47.872;16.384;2024-02-28T19:02:13;99442.97;;;6.07;57.57
55470;BME280;41334;47.872;16.384;2024-02-28T19:07:16;99446.97;;;6.15;57.13
55470;BME280;41334;47.872;16.384;2024-02-28T19:12:18;99443.59;;;6.04;57.48
55470;BME280;41334;47.872;16.384;2024-02-28T19:17:20;99449.22;;;6.13;57.26
55470;BME280;41334;47.872;16.384;2024-02-28T19:22:23;99443.56;;;6.18;56.45
55470;BME280;41334;47.872;16.384;2024-02-28T19:27:25;99447.19;;;6.05;56.92
55470;BME280;41334;47.872;16.384;2024-02-28T19:32:27;99447.59;;;5.98;57.70
55470;BME280;41334;47.872;16.384;2024-02-28T19:37:29;99446.88;;;6.06;56.89
55470;BME280;41334;47.872;16.384;2024-02-28T19:42:31;99453.75;;;5.95;57.69
55470;BME280;41334;47.872;16.384;2024-02-28T19:47:34;99460.31;;;5.86;58.30
55470;BME280;41334;47.872;16.384;2024-02-28T19:52:36;99458.78;;;5.93;57.65
55470;BME280;41334;47.872;16.384;2024-02-28T19:57:39;99472.56;;;5.79;58.30
55470;BME280;41334;47.872;16.384;2024-02-28T20:02:41;99467.34;;;5.78;57.75
55470;BME280;41334;47.872;16.384;2024-02-28T20:07:43;99468.47;;;5.77;57.34
55470;BME280;41334;47.872;16.384;2024-02-28T20:12:45;99468.41;;;5.82;56.56
55470;BME280;41334;47.872;16.384;2024-02-28T20:17:47;99482.19;;;5.68;57.76
55470;BME280;41334;47.872;16.384;2024-02-28T20:22:49;99479.66;;;5.72;57.01
55470;BME280;41334;47.872;16.384;2024-02-28T20:27:51;99488.16;;;5.62;57.63
55470;BME280;41334;47.872;16.384;2024-02-28T20:32:53;99488.59;;;5.50;57.82
55470;BME280;41334;47.872;16.384;2024-02-28T20:37:56;99488.59;;;5.36;58.28
55470;BME280;41334;47.872;16.384;2024-02-28T20:42:58;99485.75;;;5.41;57.81
55470;BME280;41334;47.872;16.384;2024-02-28T20:48:02;99500.78;;;5.35;57.59
55470;BME280;41334;47.872;16.384;2024-02-28T20:53:04;99485.56;;;5.19;57.86
55470;BME280;41334;47.872;16.384;2024-02-28T20:58:09;99488.63;;;5.17;58.46
55470;BME280;41334;47.872;16.384;2024-02-28T21:03:12;99485.44;;;5.10;58.29
55470;BME280;41334;47.872;16.384;2024-02-28T21:08:14;99484.22;;;5.16;58.21
55470;BME280;41334;47.872;16.384;2024-02-28T21:13:16;99485.09;;;4.98;58.91
55470;BME280;41334;47.872;16.384;2024-02-28T21:18:19;99479.50;;;5.17;58.07
55470;BME280;41334;47.872;16.384;2024-02-28T21:23:21;99489.34;;;5.23;58.27
55470;BME280;41334;47.872;16.384;2024-02-28T21:28:23;99496.97;;;5.31;56.56
55470;BME280;41334;47.872;16.384;2024-02-28T21:33:27;99498.28;;;5.20;58.51
55470;BME280;41334;47.872;16.384;2024-02-28T21:38:29;99501.16;;;5.28;57.78
55470;BME280;41334;47.872;16.384;2024-02-28T21:43:31;99495.63;;;5.28;57.28
55470;BME280;41334;47.872;16.384;2024-02-28T21:48:37;99488.69;;;5.31;58.08
55470;BME280;41334;47.872;16.384;2024-02-28T21:53:39;99487.94;;;5.25;57.98
55470;BME280;41334;47.872;16.384;2024-02-28T21:58:40;99490.66;;;5.44;57.38
55470;BME280;41334;47.872;16.384;2024-02-28T22:03:44;99496.41;;;5.48;57.73
55470;BME280;41334;47.872;16.384;2024-02-28T22:08:46;99495.63;;;5.61;56.03
55470;BME280;41334;47.872;16.384;2024-02-28T22:13:48;99493.06;;;5.78;54.82
55470;BME280;41334;47.872;16.384;2024-02-28T22:18:50;99493.13;;;5.60;57.34
55470;BME280;41334;47.872;16.384;2024-02-28T22:23:52;99493.13;;;5.60;57.14
55470;BME280;41334;47.872;16.384;2024-02-28T22:28:54;99494.78;;;5.61;57.15
55470;BME280;41334;47.872;16.384;2024-02-28T22:33:56;99490.91;;;5.62;57.13
55470;BME280;41334;47.872;16.384;2024-02-28T22:38:58;99481.19;;;5.78;56.26
55470;BME280;41334;47.872;16.384;2024-02-28T22:44:00;99483.91;;;5.83;56.06
55470;BME280;41334;47.872;16.384;2024-02-28T22:49:03;99489.34;;;5.88;56.00
55470;BME280;41334;47.872;16.384;2024-02-28T22:54:05;99488.47;;;5.88;55.42
55470;BME280;41334;47.872;16.384;2024-02-28T22:59:11;99497.31;;;6.03;55.07
55470;BME280;41334;47.872;16.384;2024-02-28T23:04:13;99489.94;;;5.99;54.34
55470;BME280;41334;47.872;16.384;2024-02-28T23:09:17;99492.91;;;6.02;55.68
55470;BME280;41334;47.872;16.384;2024-02-28T23:14:19;99498.34;;;6.21;54.95
55470;BME280;41334;47.872;16.384;2024-02-28T23:19:21;99495.06;;;6.05;55.89
55470;BME280;41334;47.872;16.384;2024-02-28T23:24:23;99495.06;;;6.19;54.23
55470;BME280;41334;47.872;16.384;2024-02-28T23:29:25;99492.19;;;6.11;55.68
55470;BME280;41334;47.872;16.384;2024-02-28T23:34:27;99499.97;;;6.09;55.87
55470;BME280;41334;47.872;16.384;2024-02-28T23:39:30;99486.66;;;6.11;55.42
55470;BME280;41334;47.872;16.384;2024-02-28T23:44:32;99484.59;;;6.16;54.37
55470;BME280;41334;47.872;16.384;2024-02-28T23:49:34;99482.97;;;6.15;54.99
55470;BME280;41334;47.872;16.384;2024-02-28T23:54:36;99480.69;;;6.03;55.36
55470;BME280;41334;47.872;16.384;2024-02-28T23:59:40;99481.66;;;5.99;55.95
